WETTERDATEN

GESTERN
Time Temp. Taup. r.Fe. Windrich Windstärke Windböe Druck 1h Prec. 24h Prec.
00:02 2.9 2.9 100 262 1.4 2.8 1030.2 0.0000 0.0000
00:22 3 3 100 262 1.1 2.8 1030.2 0.0000 0.0000
00:33 3 3 100 256 1.4 3.6 1030.1 0.0000 0.0000
00:43 3.1 3.1 100 270 0.8 2.5 1030.2 0.0000 0.0000
00:52 3.1 3.1 100 270 1.1 2.8 1030.1 0.0000 0.0000
01:02 3.1 3.1 100 263 1.7 5 1030.1 0.0000 0.0000
01:13 3.1 3.1 100 270 1.4 2.8 1030 0.0000 0.0000
01:23 3 3 100 270 1.4 3.9 1030 0.0000 0.0000
01:32 3 3 100 270 1.1 2.8 1030 0.0000 0.0000
01:43 3 3 100 270 1.1 3.1 1029.9 0.0000 0.0000
01:53 2.9 2.9 100 270 1.4 3.6 1029.8 0.0000 0.0000
02:03 2.9 2.9 100 270 1.1 2.5 1029.9 0.0000 0.0000
02:13 2.9 2.9 100 282 0.8 1.4 1029.9 0.0000 0.0000
02:23 2.9 2.9 100 277 1.4 3.1 1030 0.0000 0.0000
02:33 2.9 2.9 100 275 1.7 4.2 1030 0.0000 0.0000
02:43 2.8 2.8 100 282 1.4 3.6 1029.9 0.0000 0.0000
02:54 2.8 2.8 100 270 1.4 5 1029.8 0.0000 0.0000
03:03 2.7 2.7 100 270 1.1 2.8 1029.8 0.0000 0.0000
03:13 2.7 2.7 100 279 1.1 3.9 1029.8 0.0000 0.0000
03:23 2.7 2.7 100 270 0.8 2.5 1029.7 0.0000 0.0000
03:34 2.6 2.6 100 270 1.1 3.9 1029.5 0.0000 0.0000
03:43 2.6 2.6 100 270 1.1 2.8 1029.4 0.0000 0.0000
03:53 2.6 2.6 100 270 0.8 2.2 1029.4 0.0000 0.0000
04:04 2.5 2.5 100 270 1.1 3.1 1029.4 0.0000 0.0000
04:14 2.5 2.5 100 283 1.1 2.2 1029.4 0.0000 0.0000
04:23 2.5 2.5 100 270 0.8 1.7 1029.3 0.0000 0.0000
04:33 2.5 2.5 100 284 1.1 3.9 1029.3 0.0000 0.0000
04:44 2.4 2.4 100 270 1.1 2.5 1029.2 0.0000 0.0000
04:54 2.4 2.4 100 283 0.8 1.7 1029.1 0.0000 0.0000
05:03 2.3 2.3 100 258 1.1 3.1 1029.1 0.0000 0.0000
05:14 2.3 2.3 100 270 1.1 2.2 1029 0.0000 0.0000
05:24 2.3 2.3 100 270 1.1 2.2 1028.9 0.0000 0.0000
05:34 2.2 2.2 100 270 1.4 3.6 1028.9 0.0000 0.0000
05:44 2.2 2.2 100 270 0.8 2.8 1028.9 0.0000 0.0000
05:54 2.1 2.1 100 259 1.1 4.2 1028.8 0.0000 0.0000
06:04 2.1 2.1 100 260 1.1 2.5 1028.7 0.0000 0.0000
06:14 2.1 2.1 100 262 1.1 2.8 1028.8 0.0000 0.0000
06:25 2 2 100 270 1.1 2.5 1028.9 0.0000 0.0000
06:34 2 2 100 278 1.1 1.7 1029 0.0000 0.0000
06:44 2 2 100 262 1.1 2.8 1028.9 0.0000 0.0000
06:54 1.9 1.9 100 270 0.8 2.5 1028.8 0.0000 0.0000
07:05 1.9 1.9 100 260 0.8 2.2 1028.6 0.0000 0.0000
07:14 1.8 1.8 100 258 0.8 1.7 1028.5 0.0000 0.0000
07:24 1.7 1.7 100 252 0.8 2.2 1028.5 0.0000 0.0000
07:35 1.7 1.7 100 259 1.1 3.1 1028.6 0.0000 0.0000
07:45 1.7 1.7 100 259 1.1 3.1 1028.6 0.0000 0.0000
07:55 1.7 1.7 100 255 0.8 2.2 1028.6 0.0000 0.0000
08:05 1.8 1.8 100 260 1.1 3.6 1028.6 0.0000 0.0000
08:15 1.8 1.8 100 270 1.4 2.8 1028.5 0.0000 0.0000
08:25 1.7 1.7 100 270 0.8 2.2 1028.4 0.0000 0.0000
08:35 1.7 1.7 100 257 0.8 2.5 1028.5 0.0000 0.0000
08:45 1.8 1.8 100 270 0.8 1.4 1028.5 0.0000 0.0000
08:55 1.9 1.9 100 263 1.4 4.2 1028.5 0.0000 0.0000
09:05 2 2 100 255 1.4 2.8 1028.4 0.0000 0.0000
09:15 2.1 2.1 100 263 1.4 3.1 1028.5 0.0000 0.0000
09:26 2.2 2.2 100 270 1.4 2.5 1028.7 0.0000 0.0000
09:35 2.3 2.3 100 252 1.1 2.5 1028.5 0.0000 0.0000
09:45 2.4 2.4 100 253 1.1 3.9 1028.4 0.0000 0.0000
09:56 2.5 2.5 100 270 1.4 3.9 1028.4 0.0000 0.0000
10:06 2.6 2.6 100 246 0.8 2.2 1028.4 0.0000 0.0000
10:16 2.7 2.7 100 255 0.8 2.2 1028.6 0.0000 0.0000
10:26 2.8 2.8 100 285 0.8 2.2 1028.7 0.0000 0.0000
10:36 2.9 2.9 100 270 1.1 2.5 1028.6 0.0000 0.0000
10:46 2.9 2.9 100 262 1.4 3.9 1028.7 0.0000 0.0000
10:56 3 3 100 260 1.4 3.6 1028.6 0.0000 0.0000
11:06 3.1 3.1 100 270 0.8 1.7 1028.7 0.0000 0.0000
11:16 3.2 3.2 100 281 0.8 2.8 1028.9 0.0000 0.0000
11:26 3.3 3.3 100 270 1.4 3.1 1028.8 0.0000 0.0000
11:36 3.2 3.2 100 278 1.1 3.9 1028.7 0.0000 0.0000
11:46 3.1 3.1 100 270 1.1 3.6 1028.9 0.0000 0.0000
11:56 3 3 100 270 1.4 3.9 1028.9 0.0000 0.0000
12:06 2.9 2.9 100 270 1.1 3.1 1028.8 0.0000 0.0000
12:17 2.8 2.8 100 270 1.1 2.8 1028.9 0.0000 0.0000
12:27 2.6 2.6 100 289 1.1 2.8 1028.9 0.0000 0.0000
12:36 2.5 2.5 100 283 1.7 3.6 1028.9 0.0000 0.0000
12:47 2.4 2.4 100 270 1.7 4.4 1028.6 0.0000 0.0000
12:57 2.3 2.3 100 291 1.1 3.1 1028.6 0.0000 0.0000
13:07 2.2 2.2 100 277 1.4 2.8 1028.5 0.0000 0.0000
13:16 2.2 2.2 100 270 1.1 2.8 1028.4 0.0000 0.0000
13:27 2.1 2.1 100 280 1.1 3.6 1028.5 0.0000 0.0000
13:37 2 2 100 270 0.8 2.5 1028.1 0.0000 0.0000
13:47 1.9 1.9 100 270 1.7 5 1028.1 0.0000 0.0000
13:57 1.9 1.9 100 270 1.7 5 1027.9 0.0000 0.0000
14:07 1.8 1.8 100 258 1.4 4.2 1027.8 0.0000 0.0000
14:17 1.8 1.8 100 282 1.7 5 1027.8 0.0000 0.0000
14:27 1.7 1.7 100 276 2.2 5.6 1027.7 0.0000 0.0000
14:38 1.7 1.7 100 274 2.2 5.3 1027.4 0.0000 0.0000
14:47 1.6 1.6 100 278 1.7 5.6 1027.4 0.0000 0.0000
14:57 1.6 1.6 100 270 2.2 4.4 1027.5 0.0000 0.0000
15:08 1.6 1.6 100 270 1.4 4.2 1027.4 0.0000 0.0000
15:18 1.5 1.5 100 270 2.2 5 1027.3 0.0000 0.0000
15:27 1.6 1.6 100 264 1.4 3.1 1027.1 0.0000 0.0000
15:37 1.6 1.6 100 258 1.4 5.6 1027 0.0000 0.0000
15:48 1.6 1.6 100 270 1.1 2.8 1027 0.0000 0.0000
15:58 1.6 1.6 100 240 0.8 2.2 1027 0.0000 0.0000
16:08 1.6 1.6 100 256 1.4 2.8 1026.9 0.0000 0.0000
16:18 1.5 1.5 100 270 1.4 3.9 1027.1 0.0000 0.0000
16:28 1.5 1.5 100 247 0.8 2.2 1027.1 0.0000 0.0000
16:38 1.5 1.5 100 261 1.1 3.1 1026.8 0.0000 0.0000
16:48 1.5 1.5 100 252 1.1 2.5 1026.7 0.0000 0.0000
17:01 1.5 1.5 100 261 1.4 6.7 1026.5 0.0000 0.0000
17:11 1.5 1.5 100 246 0.8 1.7 1026.3 0.0000 0.0000
17:21 1.5 1.5 100 255 1.1 3.1 1026.1 0.0000 0.0000
17:31 1.5 1.5 100 255 1.4 3.6 1026.4 0.0000 0.0000
17:41 1.5 1.5 100 255 1.4 3.9 1026.3 0.0000 0.0000
17:52 1.5 1.5 100 257 1.1 3.6 1026.4 0.0000 0.0000
18:01 1.6 1.6 100 261 1.1 3.6 1026.5 0.0000 0.0000
18:11 1.6 1.6 100 260 1.1 3.1 1026.3 0.0000 0.0000
18:21 1.7 1.7 100 270 1.7 4.2 1026.2 0.0000 0.0000
18:32 1.7 1.7 100 260 1.7 5 1026.2 0.0000 0.0000
18:41 1.8 1.8 100 265 1.7 4.4 1026.1 0.0000 0.0000
18:51 1.8 1.8 100 262 1.7 5.6 1026.1 0.0000 0.0000
19:02 1.8 1.8 100 270 1.7 4.2 1026 0.0000 0.0000
19:12 1.9 1.9 100 262 1.4 3.6 1025.9 0.0000 0.0000
19:21 1.9 1.9 100 261 1.4 3.1 1025.8 0.0000 0.0000
19:24 1.9 1.9 100 259 2.2 6.4 1025.7 0.0000 0.0000
19:33 1.9 1.9 100 255 2.2 5.6 1025.6 0.0000 0.0000
19:43 2 2 100 259 1.7 4.2 1025.6 0.0000 0.0000
19:54 2 2 100 261 1.7 6.4 1025.7 0.0000 0.0000
20:04 2 2 100 259 2.2 4.4 1025.4 0.0000 0.0000
20:13 2 2 100 262 1.4 4.4 1025.5 0.0000 0.0000
20:24 2.1 2.1 100 257 2.2 3.9 1025.4 0.0000 0.0000
20:34 2.1 2.1 100 270 1.4 2.8 1025.7 0.0000 0.0000
20:44 2.1 2.1 100 259 1.7 4.4 1025.5 0.0000 0.0000
20:54 2.1 2.1 100 260 1.1 2.5 1025.6 0.0000 0.0000
21:04 2.1 2.1 100 270 1.4 4.4 1025.3 0.0000 0.0000
21:14 2.1 2.1 100 261 1.4 3.1 1025.2 0.0000 0.0000
21:24 2.1 2.1 100 270 1.7 4.4 1025.2 0.0000 0.0000
21:35 2.1 2.1 100 263 1.7 4.2 1025 0.0000 0.0000
21:44 2.1 2.1 100 264 1.7 4.2 1024.9 0.0000 0.0000
21:55 2.1 2.1 100 262 2.8 7.2 1025 0.0000 0.0000
22:05 2.1 2.1 100 270 1.7 4.4 1025.1 0.0000 0.0000
22:16 2.1 2.1 100 251 1.7 3.9 1025 0.0000 0.0000
22:26 2.2 2.2 100 270 1.4 2.8 1025.1 0.0000 0.0000
22:36 2.2 2.2 100 249 1.7 3.9 1025 0.0000 0.0000
22:45 2.2 2.2 100 262 1.7 5.3 1024.9 0.0000 0.0000
22:56 2.2 2.2 100 248 1.4 3.6 1024.8 0.0000 0.0000
23:06 2.2 2.2 100 262 1.4 3.6 1024.8 0.0000 0.0000
23:16 2.2 2.2 100 260 1.7 5.3 1024.7 0.0000 0.0000
23:26 2.2 2.2 100 256 1.7 4.4 1024.6 0.0000 0.0000
23:36 2.2 2.2 100 270 1.7 4.4 1024.6 0.0000 0.0000
23:46 2.2 2.2 100 262 2.2 5.3 1024.5 0.0000 0.0000
23:56 2.2 2.2 100 255 1.4 5.3 1024.5 0.0000

TAGESSTATISTIK

2022-01-26
TEMPERATUR
MITTEL
2.2
MAXIMUM
3.3
11:26
MINIMUM
1.5
15:18
LUFTDRUCK
MITTEL
1027.8
MAXIMUM
1030.2
00:02
MINIMUM
1024.5
23:46
TAUPUNKT
MITTEL
2.2
MAXIMUM
3.3
11:26
MINIMUM
1.5
15:18
FEUCHTIGKEIT
MITTEL
100
MAXIMUM
100
00:02
MINIMUM
100
00:02
WINDSTÄRKE
MITTEL
1.3
MAXIMUM
2.8
21:55
WINDBÖE
MITTEL
3.5
MAXIMUM
7.2
21:55
WINDRICHTUNG
VORHERRSCHENDE
W
97.2%
N
0.0
NO
0.0
O
0.0
SO
0.0
S
0.0
SW
2.8
W
97.2
NW
0.0
NIEDERSCHLAG
REGEN STUNDE
0.0
REGEN TAG
0.0
TEMPERATUR (°C)
MINIMUM
1.5
MAXIMUM
3.3
MITTEL
2.2
LUFTDRUCK (hpa)
MINIMUM
1024.5
MAXIMUM
1030.2
MITTEL
1027.8
MESSGERÄT